sensor_id;sensor_type;location;lat;lon;timestamp;temperature;humidity
27413;DHT22;14871;52.702;5.230;2023-11-19T00:02:07;15.30;99.90
27413;DHT22;14871;52.702;5.230;2023-11-19T00:04:37;15.10;99.90
27413;DHT22;14871;52.702;5.230;2023-11-19T00:07:04;15.10;99.90
27413;DHT22;14871;52.702;5.230;2023-11-19T00:09:32;15.10;99.90
27413;DHT22;14871;52.702;5.230;2023-11-19T00:11:58;15.10;99.90
27413;DHT22;14871;52.702;5.230;2023-11-19T00:14:26;15.10;99.90
27413;DHT22;14871;52.702;5.230;2023-11-19T00:16:51;15.40;99.90
27413;DHT22;14871;52.702;5.230;2023-11-19T00:19:19;15.30;99.90
27413;DHT22;14871;52.702;5.230;2023-11-19T00:21:44;15.20;99.90
27413;DHT22;14871;52.702;5.230;2023-11-19T00:24:11;15.20;99.90
27413;DHT22;14871;52.702;5.230;2023-11-19T00:26:38;15.20;99.90
27413;DHT22;14871;52.702;5.230;2023-11-19T00:29:04;15.10;99.90
27413;DHT22;14871;52.702;5.230;2023-11-19T00:31:29;15.00;99.90
27413;DHT22;14871;52.702;5.230;2023-11-19T00:33:55;15.20;99.90
27413;DHT22;14871;52.702;5.230;2023-11-19T00:36:21;15.10;99.90
27413;DHT22;14871;52.702;5.230;2023-11-19T00:38:46;15.20;99.90
27413;DHT22;14871;52.702;5.230;2023-11-19T00:41:12;15.00;99.90
27413;DHT22;14871;52.702;5.230;2023-11-19T00:43:38;15.20;99.90
27413;DHT22;14871;52.702;5.230;2023-11-19T00:46:06;15.10;99.90
27413;DHT22;14871;52.702;5.230;2023-11-19T00:48:32;15.00;99.90
27413;DHT22;14871;52.702;5.230;2023-11-19T00:50:57;15.20;99.90
27413;DHT22;14871;52.702;5.230;2023-11-19T00:53:23;15.10;99.90
27413;DHT22;14871;52.702;5.230;2023-11-19T00:55:49;15.00;99.90
27413;DHT22;14871;52.702;5.230;2023-11-19T00:58:14;15.00;99.90
27413;DHT22;14871;52.702;5.230;2023-11-19T01:00:40;15.10;99.90
27413;DHT22;14871;52.702;5.230;2023-11-19T01:03:05;15.10;99.90
27413;DHT22;14871;52.702;5.230;2023-11-19T01:05:32;15.10;99.90
27413;DHT22;14871;52.702;5.230;2023-11-19T01:07:58;15.10;99.90
27413;DHT22;14871;52.702;5.230;2023-11-19T01:10:24;15.00;99.90
27413;DHT22;14871;52.702;5.230;2023-11-19T01:12:51;14.90;99.90
27413;DHT22;14871;52.702;5.230;2023-11-19T01:15:17;14.90;99.90
27413;DHT22;14871;52.702;5.230;2023-11-19T01:17:44;14.90;99.90
27413;DHT22;14871;52.702;5.230;2023-11-19T01:20:11;14.80;99.90
27413;DHT22;14871;52.702;5.230;2023-11-19T01:22:39;14.80;99.90
27413;DHT22;14871;52.702;5.230;2023-11-19T01:25:05;14.70;99.90
27413;DHT22;14871;52.702;5.230;2023-11-19T01:27:31;14.70;99.90
27413;DHT22;14871;52.702;5.230;2023-11-19T01:29:57;14.70;99.90
27413;DHT22;14871;52.702;5.230;2023-11-19T01:32:22;14.60;99.90
27413;DHT22;14871;52.702;5.230;2023-11-19T01:34:49;14.60;99.90
27413;DHT22;14871;52.702;5.230;2023-11-19T01:37:15;14.70;99.90
27413;DHT22;14871;52.702;5.230;2023-11-19T01:39:44;14.70;99.90
27413;DHT22;14871;52.702;5.230;2023-11-19T01:42:10;14.70;99.90
27413;DHT22;14871;52.702;5.230;2023-11-19T01:44:37;14.80;99.90
27413;DHT22;14871;52.702;5.230;2023-11-19T01:47:03;14.70;99.90
27413;DHT22;14871;52.702;5.230;2023-11-19T01:49:31;14.70;99.90
27413;DHT22;14871;52.702;5.230;2023-11-19T01:51:57;14.80;99.90
27413;DHT22;14871;52.702;5.230;2023-11-19T01:54:23;14.80;99.90
27413;DHT22;14871;52.702;5.230;2023-11-19T01:56:49;14.80;99.90
27413;DHT22;14871;52.702;5.230;2023-11-19T01:59:16;14.80;99.90
27413;DHT22;14871;52.702;5.230;2023-11-19T02:01:42;14.80;99.90
27413;DHT22;14871;52.702;5.230;2023-11-19T02:04:08;14.70;99.90
27413;DHT22;14871;52.702;5.230;2023-11-19T02:06:34;14.80;99.90
27413;DHT22;14871;52.702;5.230;2023-11-19T02:09:02;14.60;99.90
27413;DHT22;14871;52.702;5.230;2023-11-19T02:11:36;14.60;99.90
27413;DHT22;14871;52.702;5.230;2023-11-19T02:14:02;14.70;99.90
27413;DHT22;14871;52.702;5.230;2023-11-19T02:16:29;14.70;99.90
27413;DHT22;14871;52.702;5.230;2023-11-19T02:18:55;14.80;99.90
27413;DHT22;14871;52.702;5.230;2023-11-19T02:21:20;14.90;99.90
27413;DHT22;14871;52.702;5.230;2023-11-19T02:23:46;14.80;99.90
27413;DHT22;14871;52.702;5.230;2023-11-19T02:29:06;14.90;99.90
27413;DHT22;14871;52.702;5.230;2023-11-19T02:31:33;14.90;99.90
27413;DHT22;14871;52.702;5.230;2023-11-19T02:34:00;14.80;99.90
27413;DHT22;14871;52.702;5.230;2023-11-19T02:36:27;14.70;99.90
27413;DHT22;14871;52.702;5.230;2023-11-19T02:38:53;14.80;99.90
27413;DHT22;14871;52.702;5.230;2023-11-19T02:41:19;14.80;99.90
27413;DHT22;14871;52.702;5.230;2023-11-19T02:43:44;14.90;99.90
27413;DHT22;14871;52.702;5.230;2023-11-19T02:46:10;14.70;99.90
27413;DHT22;14871;52.702;5.230;2023-11-19T02:48:36;14.90;99.90
27413;DHT22;14871;52.702;5.230;2023-11-19T02:51:02;14.60;99.90
27413;DHT22;14871;52.702;5.230;2023-11-19T02:53:34;14.70;99.90
27413;DHT22;14871;52.702;5.230;2023-11-19T02:56:00;14.70;99.90
27413;DHT22;14871;52.702;5.230;2023-11-19T02:58:43;14.60;99.90
27413;DHT22;14871;52.702;5.230;2023-11-19T03:01:10;14.60;99.90
27413;DHT22;14871;52.702;5.230;2023-11-19T03:03:44;14.80;99.90
27413;DHT22;14871;52.702;5.230;2023-11-19T03:06:14;14.70;99.90
27413;DHT22;14871;52.702;5.230;2023-11-19T03:08:40;14.70;99.90
27413;DHT22;14871;52.702;5.230;2023-11-19T03:11:05;14.70;99.90
27413;DHT22;14871;52.702;5.230;2023-11-19T03:13:31;14.80;99.90
27413;DHT22;14871;52.702;5.230;2023-11-19T03:15:56;14.70;99.90
27413;DHT22;14871;52.702;5.230;2023-11-19T03:18:22;14.60;99.90
27413;DHT22;14871;52.702;5.230;2023-11-19T03:20:48;14.60;99.90
27413;DHT22;14871;52.702;5.230;2023-11-19T03:23:15;14.60;99.90
27413;DHT22;14871;52.702;5.230;2023-11-19T03:25:40;14.70;99.90
27413;DHT22;14871;52.702;5.230;2023-11-19T03:28:06;14.70;99.90
27413;DHT22;14871;52.702;5.230;2023-11-19T03:30:32;14.60;99.90
27413;DHT22;14871;52.702;5.230;2023-11-19T03:32:58;14.50;99.90
27413;DHT22;14871;52.702;5.230;2023-11-19T03:35:25;14.60;99.90
27413;DHT22;14871;52.702;5.230;2023-11-19T03:37:51;14.50;99.90
27413;DHT22;14871;52.702;5.230;2023-11-19T03:40:17;14.40;99.90
27413;DHT22;14871;52.702;5.230;2023-11-19T03:42:44;14.40;99.90
27413;DHT22;14871;52.702;5.230;2023-11-19T03:45:10;14.40;99.90
27413;DHT22;14871;52.702;5.230;2023-11-19T03:47:36;14.50;99.90
27413;DHT22;14871;52.702;5.230;2023-11-19T03:50:02;14.50;99.90
27413;DHT22;14871;52.702;5.230;2023-11-19T03:52:29;14.50;99.90
27413;DHT22;14871;52.702;5.230;2023-11-19T03:54:55;14.50;99.90
27413;DHT22;14871;52.702;5.230;2023-11-19T03:57:21;14.40;99.90
27413;DHT22;14871;52.702;5.230;2023-11-19T03:59:47;14.30;99.90
27413;DHT22;14871;52.702;5.230;2023-11-19T04:02:13;14.30;99.90
27413;DHT22;14871;52.702;5.230;2023-11-19T04:04:38;14.50;99.90
27413;DHT22;14871;52.702;5.230;2023-11-19T04:07:05;14.60;99.90
27413;DHT22;14871;52.702;5.230;2023-11-19T04:09:31;14.60;99.90
27413;DHT22;14871;52.702;5.230;2023-11-19T04:11:58;14.60;99.90
27413;DHT22;14871;52.702;5.230;2023-11-19T04:14:24;14.40;99.90
27413;DHT22;14871;52.702;5.230;2023-11-19T04:16:50;14.40;99.90
27413;DHT22;14871;52.702;5.230;2023-11-19T04:19:16;14.40;99.90
27413;DHT22;14871;52.702;5.230;2023-11-19T04:21:42;14.40;99.90
27413;DHT22;14871;52.702;5.230;2023-11-19T04:24:09;14.30;99.90
27413;DHT22;14871;52.702;5.230;2023-11-19T04:26:43;14.20;99.90
27413;DHT22;14871;52.702;5.230;2023-11-19T04:29:11;14.30;99.90
27413;DHT22;14871;52.702;5.230;2023-11-19T04:31:38;14.30;99.90
27413;DHT22;14871;52.702;5.230;2023-11-19T04:34:03;14.30;99.90
27413;DHT22;14871;52.702;5.230;2023-11-19T04:36:29;14.20;99.90
27413;DHT22;14871;52.702;5.230;2023-11-19T04:38:55;14.30;99.90
27413;DHT22;14871;52.702;5.230;2023-11-19T04:41:21;14.20;99.90
27413;DHT22;14871;52.702;5.230;2023-11-19T04:43:46;14.10;99.90
27413;DHT22;14871;52.702;5.230;2023-11-19T04:46:12;14.20;99.90
27413;DHT22;14871;52.702;5.230;2023-11-19T04:48:38;14.30;99.90
27413;DHT22;14871;52.702;5.230;2023-11-19T04:51:07;14.40;99.90
27413;DHT22;14871;52.702;5.230;2023-11-19T04:53:33;14.40;99.90
27413;DHT22;14871;52.702;5.230;2023-11-19T04:55:58;14.20;99.90
27413;DHT22;14871;52.702;5.230;2023-11-19T04:58:24;14.30;99.90
27413;DHT22;14871;52.702;5.230;2023-11-19T05:00:50;14.30;99.90
27413;DHT22;14871;52.702;5.230;2023-11-19T05:03:15;14.40;99.90
27413;DHT22;14871;52.702;5.230;2023-11-19T05:05:41;14.30;99.90
27413;DHT22;14871;52.702;5.230;2023-11-19T05:08:07;14.10;99.90
27413;DHT22;14871;52.702;5.230;2023-11-19T05:10:32;14.30;99.90
27413;DHT22;14871;52.702;5.230;2023-11-19T05:12:58;14.20;99.90
27413;DHT22;14871;52.702;5.230;2023-11-19T05:15:23;14.40;99.90
27413;DHT22;14871;52.702;5.230;2023-11-19T05:17:49;14.30;99.90
27413;DHT22;14871;52.702;5.230;2023-11-19T05:20:15;14.20;99.90
27413;DHT22;14871;52.702;5.230;2023-11-19T05:22:41;14.20;99.90
27413;DHT22;14871;52.702;5.230;2023-11-19T05:25:07;14.30;99.90
27413;DHT22;14871;52.702;5.230;2023-11-19T05:27:34;14.30;99.90
27413;DHT22;14871;52.702;5.230;2023-11-19T05:30:01;14.20;99.90
27413;DHT22;14871;52.702;5.230;2023-11-19T05:32:27;14.30;99.90
27413;DHT22;14871;52.702;5.230;2023-11-19T05:34:53;14.20;99.90
27413;DHT22;14871;52.702;5.230;2023-11-19T05:37:18;14.20;99.90
27413;DHT22;14871;52.702;5.230;2023-11-19T05:39:45;14.10;99.90
27413;DHT22;14871;52.702;5.230;2023-11-19T05:42:10;14.20;99.90
27413;DHT22;14871;52.702;5.230;2023-11-19T05:44:36;14.10;99.90
27413;DHT22;14871;52.702;5.230;2023-11-19T05:47:03;14.10;99.90
27413;DHT22;14871;52.702;5.230;2023-11-19T05:49:29;14.00;99.90
27413;DHT22;14871;52.702;5.230;2023-11-19T05:51:55;14.10;99.90
27413;DHT22;14871;52.702;5.230;2023-11-19T05:54:21;14.20;99.90
27413;DHT22;14871;52.702;5.230;2023-11-19T05:56:50;14.00;99.90
27413;DHT22;14871;52.702;5.230;2023-11-19T05:59:16;14.10;99.90
27413;DHT22;14871;52.702;5.230;2023-11-19T06:01:43;14.00;99.90
27413;DHT22;14871;52.702;5.230;2023-11-19T06:04:09;14.10;99.90
27413;DHT22;14871;52.702;5.230;2023-11-19T06:06:38;13.90;99.90
27413;DHT22;14871;52.702;5.230;2023-11-19T06:09:05;14.00;99.90
27413;DHT22;14871;52.702;5.230;2023-11-19T06:11:32;14.00;99.90
27413;DHT22;14871;52.702;5.230;2023-11-19T06:13:58;14.10;99.90
27413;DHT22;14871;52.702;5.230;2023-11-19T06:16:24;14.10;99.90
27413;DHT22;14871;52.702;5.230;2023-11-19T06:18:49;14.00;99.90
27413;DHT22;14871;52.702;5.230;2023-11-19T06:21:15;14.10;99.90
27413;DHT22;14871;52.702;5.230;2023-11-19T06:23:41;14.20;99.90
27413;DHT22;14871;52.702;5.230;2023-11-19T06:26:07;14.10;99.90
27413;DHT22;14871;52.702;5.230;2023-11-19T06:28:34;14.20;99.90
27413;DHT22;14871;52.702;5.230;2023-11-19T06:30:59;14.20;99.90
27413;DHT22;14871;52.702;5.230;2023-11-19T06:33:25;14.30;99.90
27413;DHT22;14871;52.702;5.230;2023-11-19T06:35:52;14.20;99.90
27413;DHT22;14871;52.702;5.230;2023-11-19T06:38:17;14.10;99.90
27413;DHT22;14871;52.702;5.230;2023-11-19T06:40:43;14.20;99.90
27413;DHT22;14871;52.702;5.230;2023-11-19T06:43:08;14.20;99.90
27413;DHT22;14871;52.702;5.230;2023-11-19T06:45:34;14.00;99.90
27413;DHT22;14871;52.702;5.230;2023-11-19T06:48:03;14.20;99.90
27413;DHT22;14871;52.702;5.230;2023-11-19T06:50:30;14.10;99.90
27413;DHT22;14871;52.702;5.230;2023-11-19T06:52:56;14.20;99.90
27413;DHT22;14871;52.702;5.230;2023-11-19T06:55:21;14.10;99.90
27413;DHT22;14871;52.702;5.230;2023-11-19T06:57:47;14.00;99.90
27413;DHT22;14871;52.702;5.230;2023-11-19T07:00:13;14.00;99.90
27413;DHT22;14871;52.702;5.230;2023-11-19T07:02:38;13.90;99.90
27413;DHT22;14871;52.702;5.230;2023-11-19T07:05:05;13.90;99.90
27413;DHT22;14871;52.702;5.230;2023-11-19T07:07:31;13.90;99.90
27413;DHT22;14871;52.702;5.230;2023-11-19T07:09:58;13.70;99.90
27413;DHT22;14871;52.702;5.230;2023-11-19T07:12:24;13.90;99.90
27413;DHT22;14871;52.702;5.230;2023-11-19T07:14:52;14.00;99.90
27413;DHT22;14871;52.702;5.230;2023-11-19T07:17:18;13.90;99.90
27413;DHT22;14871;52.702;5.230;2023-11-19T07:19:44;13.90;99.90
27413;DHT22;14871;52.702;5.230;2023-11-19T07:22:09;13.90;99.90
27413;DHT22;14871;52.702;5.230;2023-11-19T07:24:39;13.90;99.90
27413;DHT22;14871;52.702;5.230;2023-11-19T07:27:05;13.90;99.90
27413;DHT22;14871;52.702;5.230;2023-11-19T07:29:32;13.90;99.90
27413;DHT22;14871;52.702;5.230;2023-11-19T07:31:57;13.90;99.90
27413;DHT22;14871;52.702;5.230;2023-11-19T07:34:24;14.00;99.90
27413;DHT22;14871;52.702;5.230;2023-11-19T07:36:50;14.00;99.90
27413;DHT22;14871;52.702;5.230;2023-11-19T07:39:15;14.10;99.90
27413;DHT22;14871;52.702;5.230;2023-11-19T07:41:41;14.30;99.90
27413;DHT22;14871;52.702;5.230;2023-11-19T07:44:06;14.10;99.90
27413;DHT22;14871;52.702;5.230;2023-11-19T07:46:32;14.00;99.90
27413;DHT22;14871;52.702;5.230;2023-11-19T07:48:58;14.00;99.90
27413;DHT22;14871;52.702;5.230;2023-11-19T07:51:24;14.20;99.90
27413;DHT22;14871;52.702;5.230;2023-11-19T07:53:49;14.20;99.90
27413;DHT22;14871;52.702;5.230;2023-11-19T07:56:15;14.20;99.90
27413;DHT22;14871;52.702;5.230;2023-11-19T07:58:40;14.10;99.90
27413;DHT22;14871;52.702;5.230;2023-11-19T08:01:06;14.20;99.90
27413;DHT22;14871;52.702;5.230;2023-11-19T08:03:32;14.10;99.90
27413;DHT22;14871;52.702;5.230;2023-11-19T08:05:59;14.30;99.90
27413;DHT22;14871;52.702;5.230;2023-11-19T08:08:25;14.20;99.90
27413;DHT22;14871;52.702;5.230;2023-11-19T08:10:51;14.30;99.90
27413;DHT22;14871;52.702;5.230;2023-11-19T08:13:18;14.30;99.90
27413;DHT22;14871;52.702;5.230;2023-11-19T08:15:43;14.60;99.90
27413;DHT22;14871;52.702;5.230;2023-11-19T08:18:09;14.40;99.90
27413;DHT22;14871;52.702;5.230;2023-11-19T08:20:35;14.50;99.90
27413;DHT22;14871;52.702;5.230;2023-11-19T08:23:02;14.40;99.90
27413;DHT22;14871;52.702;5.230;2023-11-19T08:25:29;14.40;99.90
27413;DHT22;14871;52.702;5.230;2023-11-19T08:27:54;14.40;99.90
27413;DHT22;14871;52.702;5.230;2023-11-19T08:30:20;14.30;99.90
27413;DHT22;14871;52.702;5.230;2023-11-19T08:32:45;14.30;99.90
27413;DHT22;14871;52.702;5.230;2023-11-19T08:35:11;14.60;99.90
27413;DHT22;14871;52.702;5.230;2023-11-19T08:37:37;14.50;99.90
27413;DHT22;14871;52.702;5.230;2023-11-19T08:40:04;14.50;99.90
27413;DHT22;14871;52.702;5.230;2023-11-19T08:42:30;14.70;99.90
27413;DHT22;14871;52.702;5.230;2023-11-19T08:44:56;14.80;99.90
27413;DHT22;14871;52.702;5.230;2023-11-19T08:47:21;15.00;99.90
27413;DHT22;14871;52.702;5.230;2023-11-19T08:49:50;15.00;99.90
27413;DHT22;14871;52.702;5.230;2023-11-19T08:52:17;15.30;99.90
27413;DHT22;14871;52.702;5.230;2023-11-19T08:54:43;15.40;99.90
27413;DHT22;14871;52.702;5.230;2023-11-19T08:57:08;15.30;99.90
27413;DHT22;14871;52.702;5.230;2023-11-19T08:59:34;15.30;99.90
27413;DHT22;14871;52.702;5.230;2023-11-19T09:02:00;15.40;99.90
27413;DHT22;14871;52.702;5.230;2023-11-19T09:04:25;15.40;99.90
27413;DHT22;14871;52.702;5.230;2023-11-19T09:06:51;15.40;99.90
27413;DHT22;14871;52.702;5.230;2023-11-19T09:09:17;15.30;99.90
27413;DHT22;14871;52.702;5.230;2023-11-19T09:11:42;15.40;99.90
27413;DHT22;14871;52.702;5.230;2023-11-19T09:14:08;15.50;99.90
27413;DHT22;14871;52.702;5.230;2023-11-19T09:16:34;15.50;99.90
27413;DHT22;14871;52.702;5.230;2023-11-19T09:19:00;15.50;99.90
27413;DHT22;14871;52.702;5.230;2023-11-19T09:21:26;15.30;99.90
27413;DHT22;14871;52.702;5.230;2023-11-19T09:23:52;15.40;99.90
27413;DHT22;14871;52.702;5.230;2023-11-19T09:26:19;15.30;99.90
27413;DHT22;14871;52.702;5.230;2023-11-19T09:28:45;15.30;99.90
27413;DHT22;14871;52.702;5.230;2023-11-19T09:31:17;15.50;99.90
27413;DHT22;14871;52.702;5.230;2023-11-19T09:33:43;15.60;99.90
27413;DHT22;14871;52.702;5.230;2023-11-19T09:36:10;15.50;99.90
27413;DHT22;14871;52.702;5.230;2023-11-19T09:38:39;15.80;99.90
27413;DHT22;14871;52.702;5.230;2023-11-19T09:41:05;16.20;99.90
27413;DHT22;14871;52.702;5.230;2023-11-19T09:43:34;16.40;99.90
27413;DHT22;14871;52.702;5.230;2023-11-19T09:46:06;16.40;99.90
27413;DHT22;14871;52.702;5.230;2023-11-19T09:48:35;16.10;99.90
27413;DHT22;14871;52.702;5.230;2023-11-19T09:51:01;15.90;99.90
27413;DHT22;14871;52.702;5.230;2023-11-19T09:53:27;15.70;99.90
27413;DHT22;14871;52.702;5.230;2023-11-19T09:55:53;15.70;99.90
27413;DHT22;14871;52.702;5.230;2023-11-19T09:58:19;15.80;99.90
27413;DHT22;14871;52.702;5.230;2023-11-19T10:00:44;15.90;99.90
27413;DHT22;14871;52.702;5.230;2023-11-19T10:03:11;15.70;99.90
27413;DHT22;14871;52.702;5.230;2023-11-19T10:05:38;15.60;99.90
27413;DHT22;14871;52.702;5.230;2023-11-19T10:08:07;15.40;99.90
27413;DHT22;14871;52.702;5.230;2023-11-19T10:10:34;15.40;99.90
27413;DHT22;14871;52.702;5.230;2023-11-19T10:13:00;15.30;99.90
27413;DHT22;14871;52.702;5.230;2023-11-19T10:15:26;15.50;99.90
27413;DHT22;14871;52.702;5.230;2023-11-19T10:17:54;15.40;99.90
27413;DHT22;14871;52.702;5.230;2023-11-19T10:20:20;15.40;99.90
27413;DHT22;14871;52.702;5.230;2023-11-19T10:22:45;15.50;99.90
27413;DHT22;14871;52.702;5.230;2023-11-19T10:25:25;15.50;99.90
27413;DHT22;14871;52.702;5.230;2023-11-19T10:27:52;15.40;99.90
27413;DHT22;14871;52.702;5.230;2023-11-19T10:30:35;15.60;99.90
27413;DHT22;14871;52.702;5.230;2023-11-19T10:33:08;15.50;99.90
27413;DHT22;14871;52.702;5.230;2023-11-19T10:35:35;15.40;99.90
27413;DHT22;14871;52.702;5.230;2023-11-19T10:38:21;15.40;99.90
27413;DHT22;14871;52.702;5.230;2023-11-19T10:40:48;15.30;99.90
27413;DHT22;14871;52.702;5.230;2023-11-19T10:43:14;15.50;99.90
27413;DHT22;14871;52.702;5.230;2023-11-19T10:45:39;15.40;99.90
27413;DHT22;14871;52.702;5.230;2023-11-19T10:48:06;15.80;99.90
27413;DHT22;14871;52.702;5.230;2023-11-19T10:50:39;15.90;99.90
27413;DHT22;14871;52.702;5.230;2023-11-19T10:53:06;16.00;99.90
27413;DHT22;14871;52.702;5.230;2023-11-19T10:55:36;16.10;99.90
27413;DHT22;14871;52.702;5.230;2023-11-19T11:00:56;16.10;99.90
27413;DHT22;14871;52.702;5.230;2023-11-19T11:03:21;16.00;99.90
27413;DHT22;14871;52.702;5.230;2023-11-19T11:05:49;15.90;99.90
27413;DHT22;14871;52.702;5.230;2023-11-19T11:08:16;15.70;99.90
27413;DHT22;14871;52.702;5.230;2023-11-19T11:10:55;15.70;99.90
27413;DHT22;14871;52.702;5.230;2023-11-19T11:13:24;15.70;99.90
27413;DHT22;14871;52.702;5.230;2023-11-19T11:15:50;15.60;99.90
27413;DHT22;14871;52.702;5.230;2023-11-19T11:18:16;15.70;99.90
27413;DHT22;14871;52.702;5.230;2023-11-19T11:20:45;15.80;99.90
27413;DHT22;14871;52.702;5.230;2023-11-19T11:29:10;15.60;99.90
27413;DHT22;14871;52.702;5.230;2023-11-19T11:31:49;15.70;99.90
27413;DHT22;14871;52.702;5.230;2023-11-19T11:37:25;15.90;99.90
27413;DHT22;14871;52.702;5.230;2023-11-19T11:39:52;16.00;99.90
27413;DHT22;14871;52.702;5.230;2023-11-19T11:45:09;16.20;99.90
27413;DHT22;14871;52.702;5.230;2023-11-19T11:50:14;16.90;99.90
27413;DHT22;14871;52.702;5.230;2023-11-19T11:57:50;16.80;99.90
27413;DHT22;14871;52.702;5.230;2023-11-19T12:00:39;16.80;99.90
27413;DHT22;14871;52.702;5.230;2023-11-19T12:03:06;16.80;99.90
27413;DHT22;14871;52.702;5.230;2023-11-19T12:05:33;16.90;99.90
27413;DHT22;14871;52.702;5.230;2023-11-19T12:08:05;16.70;99.90
27413;DHT22;14871;52.702;5.230;2023-11-19T12:10:53;16.90;99.90
27413;DHT22;14871;52.702;5.230;2023-11-19T12:13:20;16.60;99.90
27413;DHT22;14871;52.702;5.230;2023-11-19T12:18:30;16.60;99.90
27413;DHT22;14871;52.702;5.230;2023-11-19T12:20:57;16.40;99.90
27413;DHT22;14871;52.702;5.230;2023-11-19T12:23:23;16.10;99.90
27413;DHT22;14871;52.702;5.230;2023-11-19T12:25:49;16.20;99.90
27413;DHT22;14871;52.702;5.230;2023-11-19T12:28:16;15.90;99.90
27413;DHT22;14871;52.702;5.230;2023-11-19T12:30:43;15.90;99.90
27413;DHT22;14871;52.702;5.230;2023-11-19T12:33:10;15.80;99.90
27413;DHT22;14871;52.702;5.230;2023-11-19T12:35:46;15.90;99.90
27413;DHT22;14871;52.702;5.230;2023-11-19T12:40:46;15.90;99.90
27413;DHT22;14871;52.702;5.230;2023-11-19T12:43:21;15.80;99.90
27413;DHT22;14871;52.702;5.230;2023-11-19T12:45:50;15.90;99.90
27413;DHT22;14871;52.702;5.230;2023-11-19T12:48:15;15.60;99.90
27413;DHT22;14871;52.702;5.230;2023-11-19T12:50:57;15.60;99.90
27413;DHT22;14871;52.702;5.230;2023-11-19T12:53:24;15.40;99.90
27413;DHT22;14871;52.702;5.230;2023-11-19T12:55:51;15.60;99.90
27413;DHT22;14871;52.702;5.230;2023-11-19T12:58:33;15.60;99.90
27413;DHT22;14871;52.702;5.230;2023-11-19T13:01:02;15.60;99.90
27413;DHT22;14871;52.702;5.230;2023-11-19T13:03:35;15.60;99.90
27413;DHT22;14871;52.702;5.230;2023-11-19T13:06:12;15.60;99.90
27413;DHT22;14871;52.702;5.230;2023-11-19T13:08:47;15.50;99.90
27413;DHT22;14871;52.702;5.230;2023-11-19T13:11:31;15.70;99.90
27413;DHT22;14871;52.702;5.230;2023-11-19T13:14:02;15.50;99.90
27413;DHT22;14871;52.702;5.230;2023-11-19T13:16:30;15.40;99.90
27413;DHT22;14871;52.702;5.230;2023-11-19T13:18:56;15.30;99.90
27413;DHT22;14871;52.702;5.230;2023-11-19T13:21:23;15.20;99.90
27413;DHT22;14871;52.702;5.230;2023-11-19T13:23:48;15.30;99.90
27413;DHT22;14871;52.702;5.230;2023-11-19T13:26:14;15.20;99.90
27413;DHT22;14871;52.702;5.230;2023-11-19T13:28:40;15.30;99.90
27413;DHT22;14871;52.702;5.230;2023-11-19T13:31:05;15.30;99.90
27413;DHT22;14871;52.702;5.230;2023-11-19T13:33:31;15.50;99.90
27413;DHT22;14871;52.702;5.230;2023-11-19T13:35:57;15.60;99.90
27413;DHT22;14871;52.702;5.230;2023-11-19T13:38:23;15.50;99.90
27413;DHT22;14871;52.702;5.230;2023-11-19T13:40:49;15.50;99.90
27413;DHT22;14871;52.702;5.230;2023-11-19T13:43:16;15.40;99.90
27413;DHT22;14871;52.702;5.230;2023-11-19T13:45:42;15.50;99.90
27413;DHT22;14871;52.702;5.230;2023-11-19T13:48:08;15.50;99.90
27413;DHT22;14871;52.702;5.230;2023-11-19T13:50:34;15.60;99.90
27413;DHT22;14871;52.702;5.230;2023-11-19T13:53:00;15.70;99.90
27413;DHT22;14871;52.702;5.230;2023-11-19T13:55:25;15.40;99.90
27413;DHT22;14871;52.702;5.230;2023-11-19T13:57:51;15.50;99.90
27413;DHT22;14871;52.702;5.230;2023-11-19T14:00:17;15.50;99.90
27413;DHT22;14871;52.702;5.230;2023-11-19T14:02:45;15.50;99.90
27413;DHT22;14871;52.702;5.230;2023-11-19T14:05:11;15.50;99.90
27413;DHT22;14871;52.702;5.230;2023-11-19T14:07:37;15.40;99.90
27413;DHT22;14871;52.702;5.230;2023-11-19T14:10:03;15.50;99.90
27413;DHT22;14871;52.702;5.230;2023-11-19T14:12:31;15.40;99.90
27413;DHT22;14871;52.702;5.230;2023-11-19T14:14:57;15.40;99.90
27413;DHT22;14871;52.702;5.230;2023-11-19T14:17:23;15.40;99.90
27413;DHT22;14871;52.702;5.230;2023-11-19T14:19:50;15.50;99.90
27413;DHT22;14871;52.702;5.230;2023-11-19T14:22:16;15.40;99.90
27413;DHT22;14871;52.702;5.230;2023-11-19T14:24:42;15.20;99.90
27413;DHT22;14871;52.702;5.230;2023-11-19T14:27:09;15.30;99.90
27413;DHT22;14871;52.702;5.230;2023-11-19T14:29:35;15.00;99.90
27413;DHT22;14871;52.702;5.230;2023-11-19T14:32:01;15.20;99.90
27413;DHT22;14871;52.702;5.230;2023-11-19T14:34:27;15.20;99.90
27413;DHT22;14871;52.702;5.230;2023-11-19T14:36:53;15.10;99.90
27413;DHT22;14871;52.702;5.230;2023-11-19T14:39:20;15.00;99.90
27413;DHT22;14871;52.702;5.230;2023-11-19T14:41:45;14.80;99.90
27413;DHT22;14871;52.702;5.230;2023-11-19T14:44:11;14.90;99.90
27413;DHT22;14871;52.702;5.230;2023-11-19T14:46:37;14.90;99.90
27413;DHT22;14871;52.702;5.230;2023-11-19T14:49:02;15.10;99.90
27413;DHT22;14871;52.702;5.230;2023-11-19T14:51:29;14.90;99.90
27413;DHT22;14871;52.702;5.230;2023-11-19T14:53:55;15.00;99.90
27413;DHT22;14871;52.702;5.230;2023-11-19T14:56:21;15.10;99.90
27413;DHT22;14871;52.702;5.230;2023-11-19T14:58:47;15.10;99.90
27413;DHT22;14871;52.702;5.230;2023-11-19T15:01:13;15.00;99.90
27413;DHT22;14871;52.702;5.230;2023-11-19T15:03:39;14.90;99.90
27413;DHT22;14871;52.702;5.230;2023-11-19T15:06:06;14.80;99.90
27413;DHT22;14871;52.702;5.230;2023-11-19T15:08:32;14.80;99.90
27413;DHT22;14871;52.702;5.230;2023-11-19T15:10:58;14.80;99.90
27413;DHT22;14871;52.702;5.230;2023-11-19T15:13:24;14.80;99.90
27413;DHT22;14871;52.702;5.230;2023-11-19T15:15:50;14.70;99.90
27413;DHT22;14871;52.702;5.230;2023-11-19T15:18:15;14.50;99.90
27413;DHT22;14871;52.702;5.230;2023-11-19T15:20:43;14.50;99.90
27413;DHT22;14871;52.702;5.230;2023-11-19T15:23:12;14.60;99.90
27413;DHT22;14871;52.702;5.230;2023-11-19T15:25:38;14.60;99.90
27413;DHT22;14871;52.702;5.230;2023-11-19T15:28:04;14.80;99.90
27413;DHT22;14871;52.702;5.230;2023-11-19T15:30:29;14.90;99.90
27413;DHT22;14871;52.702;5.230;2023-11-19T15:32:55;14.70;99.90
27413;DHT22;14871;52.702;5.230;2023-11-19T15:35:21;14.60;99.90
27413;DHT22;14871;52.702;5.230;2023-11-19T15:37:46;14.50;99.90
27413;DHT22;14871;52.702;5.230;2023-11-19T15:40:12;14.60;99.90
27413;DHT22;14871;52.702;5.230;2023-11-19T15:42:39;14.70;99.90
27413;DHT22;14871;52.702;5.230;2023-11-19T15:45:12;14.60;99.90
27413;DHT22;14871;52.702;5.230;2023-11-19T15:47:38;14.50;99.90
27413;DHT22;14871;52.702;5.230;2023-11-19T15:50:05;14.50;99.90
27413;DHT22;14871;52.702;5.230;2023-11-19T15:52:32;14.50;99.90
27413;DHT22;14871;52.702;5.230;2023-11-19T15:54:58;14.30;99.90
27413;DHT22;14871;52.702;5.230;2023-11-19T15:57:24;14.40;99.90
27413;DHT22;14871;52.702;5.230;2023-11-19T15:59:49;14.30;99.90